sensor_id;sensor_type;location;lat;lon;timestamp;P1;durP1;ratioP1;P2;durP2;ratioP2
40204;SDS011;26963;42.666;23.366;2023-04-19T00:01:33;3.25;;;1.60;;
40204;SDS011;26963;42.666;23.366;2023-04-19T00:03:59;2.55;;;1.63;;
40204;SDS011;26963;42.666;23.366;2023-04-19T00:06:25;4.03;;;1.95;;
40204;SDS011;26963;42.666;23.366;2023-04-19T00:08:54;2.55;;;1.90;;
40204;SDS011;26963;42.666;23.366;2023-04-19T00:11:21;3.42;;;1.83;;
40204;SDS011;26963;42.666;23.366;2023-04-19T00:13:47;4.60;;;2.08;;
40204;SDS011;26963;42.666;23.366;2023-04-19T00:16:13;3.22;;;1.88;;
40204;SDS011;26963;42.666;23.366;2023-04-19T00:18:39;2.58;;;2.00;;
40204;SDS011;26963;42.666;23.366;2023-04-19T00:21:04;2.78;;;1.85;;
40204;SDS011;26963;42.666;23.366;2023-04-19T00:23:30;3.08;;;1.80;;
40204;SDS011;26963;42.666;23.366;2023-04-19T00:26:06;2.60;;;1.92;;
40204;SDS011;26963;42.666;23.366;2023-04-19T00:28:32;3.03;;;2.03;;
40204;SDS011;26963;42.666;23.366;2023-04-19T00:30:58;3.65;;;2.10;;
40204;SDS011;26963;42.666;23.366;2023-04-19T00:33:24;2.70;;;1.88;;
40204;SDS011;26963;42.666;23.366;2023-04-19T00:35:49;3.22;;;2.03;;
40204;SDS011;26963;42.666;23.366;2023-04-19T00:38:15;4.03;;;1.75;;
40204;SDS011;26963;42.666;23.366;2023-04-19T00:40:40;2.80;;;2.05;;
40204;SDS011;26963;42.666;23.366;2023-04-19T00:43:06;3.90;;;2.05;;
40204;SDS011;26963;42.666;23.366;2023-04-19T00:45:31;2.63;;;1.73;;
40204;SDS011;26963;42.666;23.366;2023-04-19T00:47:59;2.47;;;1.65;;
40204;SDS011;26963;42.666;23.366;2023-04-19T00:50:25;2.53;;;1.67;;
40204;SDS011;26963;42.666;23.366;2023-04-19T00:52:51;2.88;;;1.42;;
40204;SDS011;26963;42.666;23.366;2023-04-19T00:55:19;1.95;;;1.50;;
40204;SDS011;26963;42.666;23.366;2023-04-19T00:57:45;2.88;;;1.50;;
40204;SDS011;26963;42.666;23.366;2023-04-19T01:00:12;2.00;;;1.55;;
40204;SDS011;26963;42.666;23.366;2023-04-19T01:02:39;2.47;;;1.30;;
40204;SDS011;26963;42.666;23.366;2023-04-19T01:05:04;2.78;;;1.45;;
40204;SDS011;26963;42.666;23.366;2023-04-19T01:07:31;2.30;;;1.63;;
40204;SDS011;26963;42.666;23.366;2023-04-19T01:09:58;2.97;;;1.63;;
40204;SDS011;26963;42.666;23.366;2023-04-19T01:12:24;3.03;;;1.50;;
40204;SDS011;26963;42.666;23.366;2023-04-19T01:14:50;2.10;;;1.48;;
40204;SDS011;26963;42.666;23.366;2023-04-19T01:17:15;4.00;;;1.60;;
40204;SDS011;26963;42.666;23.366;2023-04-19T01:19:42;2.85;;;1.98;;
40204;SDS011;26963;42.666;23.366;2023-04-19T01:22:08;3.85;;;1.63;;
40204;SDS011;26963;42.666;23.366;2023-04-19T01:24:34;2.22;;;1.50;;
40204;SDS011;26963;42.666;23.366;2023-04-19T01:27:00;3.67;;;1.63;;
40204;SDS011;26963;42.666;23.366;2023-04-19T01:29:26;2.47;;;1.70;;
40204;SDS011;26963;42.666;23.366;2023-04-19T01:31:55;2.47;;;1.70;;
40204;SDS011;26963;42.666;23.366;2023-04-19T01:34:20;2.42;;;1.50;;
40204;SDS011;26963;42.666;23.366;2023-04-19T01:36:49;2.92;;;2.05;;
40204;SDS011;26963;42.666;23.366;2023-04-19T01:39:14;4.30;;;2.80;;
40204;SDS011;26963;42.666;23.366;2023-04-19T01:41:40;4.57;;;1.92;;
40204;SDS011;26963;42.666;23.366;2023-04-19T01:44:06;4.30;;;2.97;;
40204;SDS011;26963;42.666;23.366;2023-04-19T01:46:31;7.45;;;2.90;;
40204;SDS011;26963;42.666;23.366;2023-04-19T01:48:59;5.75;;;3.47;;
40204;SDS011;26963;42.666;23.366;2023-04-19T01:51:25;4.95;;;3.15;;
40204;SDS011;26963;42.666;23.366;2023-04-19T01:53:50;4.35;;;2.65;;
40204;SDS011;26963;42.666;23.366;2023-04-19T01:56:18;5.80;;;3.03;;
40204;SDS011;26963;42.666;23.366;2023-04-19T01:58:44;4.80;;;2.70;;
40204;SDS011;26963;42.666;23.366;2023-04-19T02:01:09;4.45;;;3.03;;
40204;SDS011;26963;42.666;23.366;2023-04-19T02:03:39;4.90;;;2.90;;
40204;SDS011;26963;42.666;23.366;2023-04-19T02:06:05;4.57;;;3.25;;
40204;SDS011;26963;42.666;23.366;2023-04-19T02:08:34;5.07;;;3.17;;
40204;SDS011;26963;42.666;23.366;2023-04-19T02:11:04;2.95;;;2.38;;
40204;SDS011;26963;42.666;23.366;2023-04-19T02:13:31;5.03;;;2.70;;
40204;SDS011;26963;42.666;23.366;2023-04-19T02:15:56;3.95;;;2.90;;
40204;SDS011;26963;42.666;23.366;2023-04-19T02:18:22;4.60;;;2.72;;
40204;SDS011;26963;42.666;23.366;2023-04-19T02:20:48;4.70;;;2.80;;
40204;SDS011;26963;42.666;23.366;2023-04-19T02:23:14;4.75;;;2.70;;
40204;SDS011;26963;42.666;23.366;2023-04-19T02:25:40;4.68;;;2.17;;
40204;SDS011;26963;42.666;23.366;2023-04-19T02:28:05;3.75;;;2.58;;
40204;SDS011;26963;42.666;23.366;2023-04-19T02:30:31;5.22;;;2.85;;
40204;SDS011;26963;42.666;23.366;2023-04-19T02:32:56;3.33;;;2.60;;
40204;SDS011;26963;42.666;23.366;2023-04-19T02:35:25;3.45;;;2.70;;
40204;SDS011;26963;42.666;23.366;2023-04-19T02:37:51;3.30;;;2.50;;
40204;SDS011;26963;42.666;23.366;2023-04-19T02:40:16;3.63;;;2.50;;
40204;SDS011;26963;42.666;23.366;2023-04-19T02:42:42;3.75;;;2.63;;
40204;SDS011;26963;42.666;23.366;2023-04-19T02:45:07;4.40;;;2.50;;
40204;SDS011;26963;42.666;23.366;2023-04-19T02:47:33;3.38;;;2.40;;
40204;SDS011;26963;42.666;23.366;2023-04-19T02:49:59;4.85;;;2.90;;
40204;SDS011;26963;42.666;23.366;2023-04-19T02:52:25;3.33;;;2.78;;
40204;SDS011;26963;42.666;23.366;2023-04-19T02:54:51;5.13;;;3.03;;
40204;SDS011;26963;42.666;23.366;2023-04-19T02:57:17;5.15;;;2.92;;
40204;SDS011;26963;42.666;23.366;2023-04-19T02:59:43;6.70;;;2.90;;
40204;SDS011;26963;42.666;23.366;2023-04-19T03:02:08;3.75;;;2.83;;
40204;SDS011;26963;42.666;23.366;2023-04-19T03:04:34;6.07;;;3.10;;
40204;SDS011;26963;42.666;23.366;2023-04-19T03:07:00;4.60;;;2.75;;
40204;SDS011;26963;42.666;23.366;2023-04-19T03:09:26;3.95;;;2.70;;
40204;SDS011;26963;42.666;23.366;2023-04-19T03:11:51;3.35;;;2.92;;
40204;SDS011;26963;42.666;23.366;2023-04-19T03:14:17;6.80;;;2.90;;
40204;SDS011;26963;42.666;23.366;2023-04-19T03:16:43;4.60;;;3.20;;
40204;SDS011;26963;42.666;23.366;2023-04-19T03:19:08;5.63;;;2.88;;
40204;SDS011;26963;42.666;23.366;2023-04-19T03:21:34;5.57;;;4.10;;
40204;SDS011;26963;42.666;23.366;2023-04-19T03:24:00;5.18;;;3.53;;
40204;SDS011;26963;42.666;23.366;2023-04-19T03:26:26;4.70;;;3.13;;
40204;SDS011;26963;42.666;23.366;2023-04-19T03:28:51;7.65;;;3.60;;
40204;SDS011;26963;42.666;23.366;2023-04-19T03:31:17;4.50;;;3.35;;
40204;SDS011;26963;42.666;23.366;2023-04-19T03:33:42;5.50;;;3.35;;
40204;SDS011;26963;42.666;23.366;2023-04-19T03:36:08;4.70;;;3.20;;
40204;SDS011;26963;42.666;23.366;2023-04-19T03:38:33;4.53;;;3.40;;
40204;SDS011;26963;42.666;23.366;2023-04-19T03:40:59;6.80;;;4.28;;
40204;SDS011;26963;42.666;23.366;2023-04-19T03:43:25;5.65;;;3.97;;
40204;SDS011;26963;42.666;23.366;2023-04-19T03:45:50;4.60;;;3.88;;
40204;SDS011;26963;42.666;23.366;2023-04-19T03:48:16;5.38;;;4.30;;
40204;SDS011;26963;42.666;23.366;2023-04-19T03:50:41;5.07;;;3.83;;
40204;SDS011;26963;42.666;23.366;2023-04-19T03:53:07;4.25;;;3.50;;
40204;SDS011;26963;42.666;23.366;2023-04-19T03:55:33;6.65;;;3.67;;
40204;SDS011;26963;42.666;23.366;2023-04-19T03:57:59;5.78;;;3.92;;
40204;SDS011;26963;42.666;23.366;2023-04-19T04:00:24;4.80;;;3.45;;
40204;SDS011;26963;42.666;23.366;2023-04-19T04:02:51;4.68;;;4.05;;
40204;SDS011;26963;42.666;23.366;2023-04-19T04:05:17;4.93;;;4.20;;
40204;SDS011;26963;42.666;23.366;2023-04-19T04:07:42;8.60;;;6.50;;
40204;SDS011;26963;42.666;23.366;2023-04-19T04:10:08;6.22;;;4.25;;
40204;SDS011;26963;42.666;23.366;2023-04-19T04:12:33;8.07;;;4.25;;
40204;SDS011;26963;42.666;23.366;2023-04-19T04:14:59;6.93;;;3.65;;
40204;SDS011;26963;42.666;23.366;2023-04-19T04:17:24;6.20;;;5.07;;
40204;SDS011;26963;42.666;23.366;2023-04-19T04:19:50;7.28;;;3.83;;
40204;SDS011;26963;42.666;23.366;2023-04-19T04:22:16;5.28;;;3.63;;
40204;SDS011;26963;42.666;23.366;2023-04-19T04:24:44;4.63;;;3.67;;
40204;SDS011;26963;42.666;23.366;2023-04-19T04:27:11;6.63;;;4.20;;
40204;SDS011;26963;42.666;23.366;2023-04-19T04:29:37;4.65;;;3.80;;
40204;SDS011;26963;42.666;23.366;2023-04-19T04:32:07;4.97;;;3.60;;
40204;SDS011;26963;42.666;23.366;2023-04-19T04:34:34;10.15;;;5.57;;
40204;SDS011;26963;42.666;23.366;2023-04-19T04:37:01;6.35;;;4.90;;
40204;SDS011;26963;42.666;23.366;2023-04-19T04:39:30;7.10;;;5.20;;
40204;SDS011;26963;42.666;23.366;2023-04-19T04:41:59;10.48;;;7.10;;
40204;SDS011;26963;42.666;23.366;2023-04-19T04:44:24;6.15;;;4.68;;
40204;SDS011;26963;42.666;23.366;2023-04-19T04:46:51;7.20;;;4.45;;
40204;SDS011;26963;42.666;23.366;2023-04-19T04:49:17;6.00;;;4.07;;
40204;SDS011;26963;42.666;23.366;2023-04-19T04:51:42;5.45;;;4.22;;
40204;SDS011;26963;42.666;23.366;2023-04-19T04:54:08;5.93;;;4.25;;
40204;SDS011;26963;42.666;23.366;2023-04-19T04:56:33;9.88;;;4.85;;
40204;SDS011;26963;42.666;23.366;2023-04-19T04:58:59;6.25;;;4.95;;
40204;SDS011;26963;42.666;23.366;2023-04-19T05:01:25;7.80;;;4.88;;
40204;SDS011;26963;42.666;23.366;2023-04-19T05:03:50;6.15;;;4.38;;
40204;SDS011;26963;42.666;23.366;2023-04-19T05:06:19;8.23;;;4.65;;
40204;SDS011;26963;42.666;23.366;2023-04-19T05:08:44;7.95;;;4.18;;
40204;SDS011;26963;42.666;23.366;2023-04-19T05:11:10;8.68;;;5.30;;
40204;SDS011;26963;42.666;23.366;2023-04-19T05:13:36;7.57;;;4.30;;
40204;SDS011;26963;42.666;23.366;2023-04-19T05:16:01;5.85;;;4.35;;
40204;SDS011;26963;42.666;23.366;2023-04-19T05:18:27;5.72;;;4.22;;
40204;SDS011;26963;42.666;23.366;2023-04-19T05:20:55;6.88;;;5.00;;
40204;SDS011;26963;42.666;23.366;2023-04-19T05:23:22;9.93;;;6.50;;
40204;SDS011;26963;42.666;23.366;2023-04-19T05:25:47;8.27;;;4.65;;
40204;SDS011;26963;42.666;23.366;2023-04-19T05:28:13;5.93;;;4.55;;
40204;SDS011;26963;42.666;23.366;2023-04-19T05:30:38;6.03;;;4.50;;
40204;SDS011;26963;42.666;23.366;2023-04-19T05:33:04;5.57;;;4.32;;
40204;SDS011;26963;42.666;23.366;2023-04-19T05:35:30;8.77;;;5.10;;
40204;SDS011;26963;42.666;23.366;2023-04-19T05:37:55;6.60;;;4.63;;
40204;SDS011;26963;42.666;23.366;2023-04-19T05:40:21;8.95;;;4.50;;
40204;SDS011;26963;42.666;23.366;2023-04-19T05:42:48;6.07;;;4.75;;
40204;SDS011;26963;42.666;23.366;2023-04-19T05:45:14;5.95;;;4.22;;
40204;SDS011;26963;42.666;23.366;2023-04-19T05:47:40;7.05;;;4.43;;
40204;SDS011;26963;42.666;23.366;2023-04-19T05:50:06;7.40;;;4.47;;
40204;SDS011;26963;42.666;23.366;2023-04-19T05:52:32;6.57;;;4.95;;
40204;SDS011;26963;42.666;23.366;2023-04-19T05:55:00;6.85;;;4.40;;
40204;SDS011;26963;42.666;23.366;2023-04-19T05:57:26;9.30;;;5.45;;
40204;SDS011;26963;42.666;23.366;2023-04-19T05:59:51;7.88;;;4.88;;
40204;SDS011;26963;42.666;23.366;2023-04-19T06:02:17;5.28;;;4.38;;
40204;SDS011;26963;42.666;23.366;2023-04-19T06:04:42;5.70;;;4.38;;
40204;SDS011;26963;42.666;23.366;2023-04-19T06:07:08;6.03;;;4.57;;
40204;SDS011;26963;42.666;23.366;2023-04-19T06:09:33;4.80;;;4.13;;
40204;SDS011;26963;42.666;23.366;2023-04-19T06:11:59;6.82;;;4.40;;
40204;SDS011;26963;42.666;23.366;2023-04-19T06:14:26;8.05;;;4.80;;
40204;SDS011;26963;42.666;23.366;2023-04-19T06:16:53;8.73;;;4.60;;
40204;SDS011;26963;42.666;23.366;2023-04-19T06:19:18;5.78;;;4.68;;
40204;SDS011;26963;42.666;23.366;2023-04-19T06:21:44;6.03;;;4.22;;
40204;SDS011;26963;42.666;23.366;2023-04-19T06:24:11;5.55;;;4.43;;
40204;SDS011;26963;42.666;23.366;2023-04-19T06:26:37;7.05;;;4.68;;
40204;SDS011;26963;42.666;23.366;2023-04-19T06:29:02;6.85;;;4.50;;
40204;SDS011;26963;42.666;23.366;2023-04-19T06:31:28;4.95;;;4.22;;
40204;SDS011;26963;42.666;23.366;2023-04-19T06:33:54;5.57;;;4.70;;
40204;SDS011;26963;42.666;23.366;2023-04-19T06:36:19;6.57;;;4.75;;
40204;SDS011;26963;42.666;23.366;2023-04-19T06:38:45;6.85;;;5.13;;
40204;SDS011;26963;42.666;23.366;2023-04-19T06:41:10;8.65;;;5.95;;
40204;SDS011;26963;42.666;23.366;2023-04-19T06:43:36;6.15;;;5.00;;
40204;SDS011;26963;42.666;23.366;2023-04-19T06:46:04;9.38;;;4.70;;
40204;SDS011;26963;42.666;23.366;2023-04-19T06:48:30;5.75;;;4.50;;
40204;SDS011;26963;42.666;23.366;2023-04-19T06:50:55;6.35;;;4.40;;
40204;SDS011;26963;42.666;23.366;2023-04-19T06:53:21;6.78;;;4.20;;
40204;SDS011;26963;42.666;23.366;2023-04-19T06:55:47;7.82;;;4.95;;
40204;SDS011;26963;42.666;23.366;2023-04-19T06:58:13;6.95;;;5.55;;
40204;SDS011;26963;42.666;23.366;2023-04-19T07:00:39;7.45;;;4.50;;
40204;SDS011;26963;42.666;23.366;2023-04-19T07:03:04;6.80;;;4.80;;
40204;SDS011;26963;42.666;23.366;2023-04-19T07:05:30;6.35;;;4.78;;
40204;SDS011;26963;42.666;23.366;2023-04-19T07:07:56;8.20;;;4.45;;
40204;SDS011;26963;42.666;23.366;2023-04-19T07:10:24;6.03;;;3.97;;
40204;SDS011;26963;42.666;23.366;2023-04-19T07:12:50;6.30;;;4.20;;
40204;SDS011;26963;42.666;23.366;2023-04-19T07:15:15;5.65;;;3.78;;
40204;SDS011;26963;42.666;23.366;2023-04-19T07:17:41;6.53;;;3.95;;
40204;SDS011;26963;42.666;23.366;2023-04-19T07:20:07;8.27;;;3.90;;
40204;SDS011;26963;42.666;23.366;2023-04-19T07:22:33;5.63;;;4.15;;
40204;SDS011;26963;42.666;23.366;2023-04-19T07:24:59;5.50;;;4.00;;
40204;SDS011;26963;42.666;23.366;2023-04-19T07:27:24;7.65;;;4.80;;
40204;SDS011;26963;42.666;23.366;2023-04-19T07:29:50;7.65;;;4.40;;
40204;SDS011;26963;42.666;23.366;2023-04-19T07:32:16;13.02;;;8.65;;
40204;SDS011;26963;42.666;23.366;2023-04-19T07:34:42;8.80;;;5.78;;
40204;SDS011;26963;42.666;23.366;2023-04-19T07:37:09;6.05;;;4.88;;
40204;SDS011;26963;42.666;23.366;2023-04-19T07:39:35;6.65;;;4.82;;
40204;SDS011;26963;42.666;23.366;2023-04-19T07:42:00;7.30;;;4.93;;
40204;SDS011;26963;42.666;23.366;2023-04-19T07:44:26;5.90;;;4.78;;
40204;SDS011;26963;42.666;23.366;2023-04-19T07:46:51;7.25;;;5.30;;
40204;SDS011;26963;42.666;23.366;2023-04-19T07:49:17;7.82;;;4.45;;
40204;SDS011;26963;42.666;23.366;2023-04-19T07:51:43;7.45;;;4.93;;
40204;SDS011;26963;42.666;23.366;2023-04-19T07:54:08;6.10;;;4.32;;
40204;SDS011;26963;42.666;23.366;2023-04-19T07:56:34;7.18;;;4.53;;
40204;SDS011;26963;42.666;23.366;2023-04-19T07:59:00;6.20;;;3.85;;
40204;SDS011;26963;42.666;23.366;2023-04-19T08:01:25;7.07;;;4.38;;
40204;SDS011;26963;42.666;23.366;2023-04-19T08:03:51;4.93;;;4.05;;
40204;SDS011;26963;42.666;23.366;2023-04-19T08:06:16;6.22;;;4.20;;
40204;SDS011;26963;42.666;23.366;2023-04-19T08:08:42;7.40;;;5.18;;
40204;SDS011;26963;42.666;23.366;2023-04-19T08:11:07;8.80;;;4.40;;
40204;SDS011;26963;42.666;23.366;2023-04-19T08:13:33;5.75;;;4.38;;
40204;SDS011;26963;42.666;23.366;2023-04-19T08:15:59;6.35;;;4.82;;
40204;SDS011;26963;42.666;23.366;2023-04-19T08:18:24;8.10;;;4.97;;
40204;SDS011;26963;42.666;23.366;2023-04-19T08:20:50;6.78;;;4.30;;
40204;SDS011;26963;42.666;23.366;2023-04-19T08:23:16;7.63;;;4.97;;
40204;SDS011;26963;42.666;23.366;2023-04-19T08:25:42;5.35;;;3.50;;
40204;SDS011;26963;42.666;23.366;2023-04-19T08:28:07;6.93;;;4.45;;
40204;SDS011;26963;42.666;23.366;2023-04-19T08:30:33;7.10;;;3.78;;
40204;SDS011;26963;42.666;23.366;2023-04-19T08:32:58;6.35;;;5.20;;
40204;SDS011;26963;42.666;23.366;2023-04-19T08:35:25;7.05;;;4.78;;
40204;SDS011;26963;42.666;23.366;2023-04-19T08:37:51;7.35;;;4.97;;
40204;SDS011;26963;42.666;23.366;2023-04-19T08:40:16;10.57;;;4.57;;
40204;SDS011;26963;42.666;23.366;2023-04-19T08:42:42;9.02;;;4.20;;
40204;SDS011;26963;42.666;23.366;2023-04-19T08:45:08;5.80;;;4.57;;
40204;SDS011;26963;42.666;23.366;2023-04-19T08:47:35;4.75;;;3.88;;
40204;SDS011;26963;42.666;23.366;2023-04-19T08:50:02;5.50;;;3.30;;
40204;SDS011;26963;42.666;23.366;2023-04-19T08:52:29;6.70;;;3.70;;
40204;SDS011;26963;42.666;23.366;2023-04-19T08:55:04;6.03;;;3.67;;
40204;SDS011;26963;42.666;23.366;2023-04-19T08:57:31;9.10;;;3.83;;
40204;SDS011;26963;42.666;23.366;2023-04-19T09:00:01;5.82;;;4.07;;
40204;SDS011;26963;42.666;23.366;2023-04-19T09:05:11;5.18;;;3.67;;
40204;SDS011;26963;42.666;23.366;2023-04-19T09:07:38;9.38;;;3.47;;
40204;SDS011;26963;42.666;23.366;2023-04-19T09:10:07;7.50;;;4.18;;
40204;SDS011;26963;42.666;23.366;2023-04-19T09:12:34;6.18;;;4.75;;
40204;SDS011;26963;42.666;23.366;2023-04-19T09:15:00;5.40;;;3.88;;
40204;SDS011;26963;42.666;23.366;2023-04-19T09:17:31;5.45;;;3.40;;
40204;SDS011;26963;42.666;23.366;2023-04-19T09:20:00;4.13;;;3.10;;
40204;SDS011;26963;42.666;23.366;2023-04-19T09:22:28;8.70;;;3.70;;
40204;SDS011;26963;42.666;23.366;2023-04-19T09:24:53;13.50;;;8.52;;
40204;SDS011;26963;42.666;23.366;2023-04-19T09:27:26;8.32;;;3.67;;
40204;SDS011;26963;42.666;23.366;2023-04-19T09:29:54;6.00;;;3.17;;
40204;SDS011;26963;42.666;23.366;2023-04-19T09:32:42;4.90;;;3.00;;
40204;SDS011;26963;42.666;23.366;2023-04-19T09:35:10;5.10;;;3.50;;
40204;SDS011;26963;42.666;23.366;2023-04-19T09:37:35;9.30;;;3.15;;
40204;SDS011;26963;42.666;23.366;2023-04-19T09:40:22;5.03;;;2.80;;
40204;SDS011;26963;42.666;23.366;2023-04-19T09:42:48;5.25;;;2.72;;
40204;SDS011;26963;42.666;23.366;2023-04-19T09:45:14;4.75;;;2.85;;
40204;SDS011;26963;42.666;23.366;2023-04-19T09:47:39;3.72;;;2.78;;
40204;SDS011;26963;42.666;23.366;2023-04-19T09:52:32;4.30;;;2.70;;
40204;SDS011;26963;42.666;23.366;2023-04-19T09:55:02;4.00;;;3.28;;
40204;SDS011;26963;42.666;23.366;2023-04-19T09:57:31;12.50;;;9.77;;
40204;SDS011;26963;42.666;23.366;2023-04-19T09:59:58;3.53;;;2.90;;
40204;SDS011;26963;42.666;23.366;2023-04-19T10:02:25;5.32;;;3.03;;
40204;SDS011;26963;42.666;23.366;2023-04-19T10:04:56;5.43;;;3.03;;
40204;SDS011;26963;42.666;23.366;2023-04-19T10:07:31;3.53;;;2.63;;
40204;SDS011;26963;42.666;23.366;2023-04-19T10:09:57;5.47;;;2.72;;
40204;SDS011;26963;42.666;23.366;2023-04-19T10:12:24;3.63;;;2.50;;
40204;SDS011;26963;42.666;23.366;2023-04-19T10:14:52;4.88;;;3.10;;
40204;SDS011;26963;42.666;23.366;2023-04-19T10:17:21;4.82;;;2.97;;
40204;SDS011;26963;42.666;23.366;2023-04-19T10:19:47;3.80;;;2.45;;
40204;SDS011;26963;42.666;23.366;2023-04-19T10:22:20;4.63;;;2.42;;
40204;SDS011;26963;42.666;23.366;2023-04-19T10:27:41;4.28;;;2.78;;
40204;SDS011;26963;42.666;23.366;2023-04-19T10:30:19;4.38;;;3.25;;
40204;SDS011;26963;42.666;23.366;2023-04-19T10:35:54;6.80;;;3.40;;
40204;SDS011;26963;42.666;23.366;2023-04-19T10:38:15;3.38;;;2.88;;
40204;SDS011;26963;42.666;23.366;2023-04-19T10:43:16;5.10;;;3.80;;
40204;SDS011;26963;42.666;23.366;2023-04-19T10:45:45;5.32;;;2.40;;
40204;SDS011;26963;42.666;23.366;2023-04-19T10:51:18;3.65;;;2.45;;
40204;SDS011;26963;42.666;23.366;2023-04-19T10:54:04;4.70;;;2.45;;
40204;SDS011;26963;42.666;23.366;2023-04-19T10:57:01;3.67;;;2.45;;
40204;SDS011;26963;42.666;23.366;2023-04-19T10:59:30;4.40;;;2.60;;
40204;SDS011;26963;42.666;23.366;2023-04-19T11:02:03;5.07;;;2.70;;
40204;SDS011;26963;42.666;23.366;2023-04-19T11:07:17;3.38;;;2.63;;
40204;SDS011;26963;42.666;23.366;2023-04-19T11:09:45;3.28;;;2.63;;
40204;SDS011;26963;42.666;23.366;2023-04-19T11:12:13;4.20;;;2.97;;
40204;SDS011;26963;42.666;23.366;2023-04-19T11:14:40;3.65;;;2.67;;
40204;SDS011;26963;42.666;23.366;2023-04-19T11:19:57;5.35;;;2.75;;
40204;SDS011;26963;42.666;23.366;2023-04-19T11:25:11;3.28;;;2.63;;
40204;SDS011;26963;42.666;23.366;2023-04-19T11:27:42;3.97;;;2.85;;
40204;SDS011;26963;42.666;23.366;2023-04-19T11:30:12;3.20;;;2.65;;
40204;SDS011;26963;42.666;23.366;2023-04-19T11:32:44;6.57;;;3.40;;
40204;SDS011;26963;42.666;23.366;2023-04-19T11:35:10;8.77;;;4.50;;
40204;SDS011;26963;42.666;23.366;2023-04-19T11:37:37;4.10;;;3.20;;
40204;SDS011;26963;42.666;23.366;2023-04-19T11:40:04;4.05;;;2.92;;
40204;SDS011;26963;42.666;23.366;2023-04-19T11:42:31;5.70;;;2.97;;
40204;SDS011;26963;42.666;23.366;2023-04-19T11:44:57;10.95;;;8.35;;
40204;SDS011;26963;42.666;23.366;2023-04-19T11:47:26;13.63;;;10.32;;
40204;SDS011;26963;42.666;23.366;2023-04-19T11:49:53;7.32;;;4.22;;
40204;SDS011;26963;42.666;23.366;2023-04-19T11:52:24;6.80;;;4.22;;
40204;SDS011;26963;42.666;23.366;2023-04-19T11:54:50;6.85;;;5.05;;
40204;SDS011;26963;42.666;23.366;2023-04-19T11:57:25;3.30;;;2.65;;
40204;SDS011;26963;42.666;23.366;2023-04-19T12:00:06;6.93;;;4.00;;
40204;SDS011;26963;42.666;23.366;2023-04-19T12:02:40;3.42;;;2.40;;
40204;SDS011;26963;42.666;23.366;2023-04-19T12:05:11;7.97;;;5.87;;
40204;SDS011;26963;42.666;23.366;2023-04-19T12:07:56;5.90;;;4.53;;
40204;SDS011;26963;42.666;23.366;2023-04-19T12:10:29;9.20;;;6.60;;
40204;SDS011;26963;42.666;23.366;2023-04-19T12:12:55;7.97;;;4.80;;
40204;SDS011;26963;42.666;23.366;2023-04-19T12:15:22;6.68;;;3.80;;
40204;SDS011;26963;42.666;23.366;2023-04-19T12:18:01;3.15;;;2.40;;
40204;SDS011;26963;42.666;23.366;2023-04-19T12:20:29;7.80;;;5.85;;
40204;SDS011;26963;42.666;23.366;2023-04-19T12:23:01;5.88;;;3.30;;
40204;SDS011;26963;42.666;23.366;2023-04-19T12:25:31;5.40;;;3.60;;
40204;SDS011;26963;42.666;23.366;2023-04-19T12:28:04;5.28;;;4.00;;
40204;SDS011;26963;42.666;23.366;2023-04-19T12:30:29;5.35;;;3.63;;
40204;SDS011;26963;42.666;23.366;2023-04-19T12:32:55;5.47;;;4.00;;
40204;SDS011;26963;42.666;23.366;2023-04-19T12:35:25;4.53;;;2.90;;
40204;SDS011;26963;42.666;23.366;2023-04-19T12:37:55;6.70;;;3.78;;
40204;SDS011;26963;42.666;23.366;2023-04-19T12:40:27;4.63;;;3.20;;
40204;SDS011;26963;42.666;23.366;2023-04-19T12:42:55;4.82;;;2.47;;
40204;SDS011;26963;42.666;23.366;2023-04-19T12:45:20;5.40;;;2.95;;
40204;SDS011;26963;42.666;23.366;2023-04-19T12:47:46;4.80;;;2.92;;
40204;SDS011;26963;42.666;23.366;2023-04-19T12:50:13;4.88;;;2.88;;
40204;SDS011;26963;42.666;23.366;2023-04-19T12:52:40;4.85;;;2.50;;
40204;SDS011;26963;42.666;23.366;2023-04-19T12:55:07;4.70;;;2.75;;
40204;SDS011;26963;42.666;23.366;2023-04-19T12:57:36;5.07;;;2.45;;
40204;SDS011;26963;42.666;23.366;2023-04-19T13:00:01;5.78;;;3.25;;
40204;SDS011;26963;42.666;23.366;2023-04-19T13:02:28;5.22;;;3.20;;
40204;SDS011;26963;42.666;23.366;2023-04-19T13:08:10;4.50;;;3.25;;
40204;SDS011;26963;42.666;23.366;2023-04-19T13:12:00;4.53;;;2.92;;
40204;SDS011;26963;42.666;23.366;2023-04-19T13:14:26;6.70;;;3.67;;
40204;SDS011;26963;42.666;23.366;2023-04-19T13:16:56;19.20;;;14.00;;
40204;SDS011;26963;42.666;23.366;2023-04-19T13:19:21;4.32;;;2.47;;
40204;SDS011;26963;42.666;23.366;2023-04-19T13:21:47;4.07;;;2.53;;
40204;SDS011;26963;42.666;23.366;2023-04-19T13:24:13;6.53;;;2.60;;
40204;SDS011;26963;42.666;23.366;2023-04-19T13:26:38;6.47;;;4.65;;
40204;SDS011;26963;42.666;23.366;2023-04-19T13:29:04;4.78;;;2.20;;
40204;SDS011;26963;42.666;23.366;2023-04-19T13:31:30;3.15;;;2.10;;
40204;SDS011;26963;42.666;23.366;2023-04-19T13:33:55;4.72;;;2.50;;
40204;SDS011;26963;42.666;23.366;2023-04-19T13:36:21;4.70;;;2.20;;
40204;SDS011;26963;42.666;23.366;2023-04-19T13:38:47;5.55;;;2.60;;
40204;SDS011;26963;42.666;23.366;2023-04-19T13:41:12;3.85;;;2.60;;
40204;SDS011;26963;42.666;23.366;2023-04-19T13:43:39;4.57;;;3.00;;
40204;SDS011;26963;42.666;23.366;2023-04-19T13:46:04;4.82;;;3.15;;
40204;SDS011;26963;42.666;23.366;2023-04-19T13:48:30;3.97;;;2.30;;
40204;SDS011;26963;42.666;23.366;2023-04-19T13:50:56;2.83;;;2.05;;
40204;SDS011;26963;42.666;23.366;2023-04-19T13:53:26;2.53;;;2.00;;
40204;SDS011;26963;42.666;23.366;2023-04-19T13:55:53;4.63;;;2.42;;
40204;SDS011;26963;42.666;23.366;2023-04-19T13:58:20;3.42;;;2.33;;
40204;SDS011;26963;42.666;23.366;2023-04-19T14:00:45;4.05;;;2.20;;
40204;SDS011;26963;42.666;23.366;2023-04-19T14:03:12;3.85;;;2.50;;
40204;SDS011;26963;42.666;23.366;2023-04-19T14:05:38;5.15;;;3.47;;
40204;SDS011;26963;42.666;23.366;2023-04-19T14:08:04;2.78;;;1.90;;
40204;SDS011;26963;42.666;23.366;2023-04-19T14:10:30;4.53;;;2.17;;
40204;SDS011;26963;42.666;23.366;2023-04-19T14:12:55;4.25;;;2.45;;
40204;SDS011;26963;42.666;23.366;2023-04-19T14:15:21;3.55;;;2.65;;
40204;SDS011;26963;42.666;23.366;2023-04-19T14:17:48;4.80;;;2.63;;
40204;SDS011;26963;42.666;23.366;2023-04-19T14:20:14;3.42;;;2.40;;
40204;SDS011;26963;42.666;23.366;2023-04-19T14:22:40;3.30;;;2.60;;
40204;SDS011;26963;42.666;23.366;2023-04-19T14:25:06;3.92;;;2.25;;
40204;SDS011;26963;42.666;23.366;2023-04-19T14:27:32;14.27;;;11.20;;
40204;SDS011;26963;42.666;23.366;2023-04-19T14:29:57;20.83;;;15.57;;
40204;SDS011;26963;42.666;23.366;2023-04-19T14:32:23;19.25;;;13.77;;
40204;SDS011;26963;42.666;23.366;2023-04-19T14:34:49;8.90;;;6.45;;
40204;SDS011;26963;42.666;23.366;2023-04-19T14:37:15;9.00;;;6.53;;
40204;SDS011;26963;42.666;23.366;2023-04-19T14:39:43;6.45;;;4.55;;
40204;SDS011;26963;42.666;23.366;2023-04-19T14:42:08;5.32;;;4.25;;
40204;SDS011;26963;42.666;23.366;2023-04-19T14:44:34;6.68;;;4.05;;
40204;SDS011;26963;42.666;23.366;2023-04-19T14:46:59;5.53;;;3.88;;
40204;SDS011;26963;42.666;23.366;2023-04-19T14:49:25;4.28;;;2.30;;
40204;SDS011;26963;42.666;23.366;2023-04-19T14:51:51;5.38;;;2.53;;
40204;SDS011;26963;42.666;23.366;2023-04-19T14:54:16;2.88;;;2.15;;
40204;SDS011;26963;42.666;23.366;2023-04-19T14:56:42;3.33;;;2.00;;
40204;SDS011;26963;42.666;23.366;2023-04-19T14:59:07;4.57;;;2.10;;
40204;SDS011;26963;42.666;23.366;2023-04-19T15:01:33;2.80;;;2.25;;